KALI/ALI METAR and TAF weather

Enter ICAO airport designator
Station Type Date Time Source
KALI METAR 2022/12/04 05:53 UTC NOAA

KALI 040553Z AUTO 03008KT 10SM OVC010 17/16 A3030 RMK AO2 SLP258 T01720156 10211 20172 402390172 50002


Station Type Date Time Source
KALI Decoded METAR 2022/12/04 05:53 UTC NOAA

ALICE INTERNATIONAL AIRPORT, TX, United States (KALI) 27-44N 098-01W 53M
Dec 04, 2022 - 12:53 AM EST / 2022.12.04 0553 UTC
Wind: from the NNE (030 degrees) at 9 MPH (8 KT):0
Visibility: 10 mile(s):0
Sky conditions: overcast
Temperature: 63.0 F (17.2 C)
Dew Point: 60.1 F (15.6 C)
Relative Humidity: 90%
Pressure (altimeter): 30.3 in. Hg (1026 hPa)
Pressure tendency: 0.01 inches (0.2 hPa) higher than three hours ago
ob: KALI 040553Z AUTO 03008KT 10SM OVC010 17/16 A3030 RMK AO2 SLP258 T01720156 10211 20172 402390172 50002
cycle: 6

Station Type Date Time Source
KALI TAF 2022/12/04 06:24 UTC NOAA

TAF KALI 040522Z 0406/0506 03009KT P6SM OVC010
FM040900 03006KT 6SM BR OVC006
FM041700 08006KT P6SM OVC015
FM050200 10005KT P6SM OVC008

Example: see airport list